sensor_id;sensor_type;location;lat;lon;timestamp;temperature;humidity
2162;DHT22;1087;50.226;8.682;2023-02-16T00:00:39;4.80;99.90
2162;DHT22;1087;50.226;8.682;2023-02-16T00:03:04;4.80;99.90
2162;DHT22;1087;50.226;8.682;2023-02-16T00:05:33;4.70;99.90
2162;DHT22;1087;50.226;8.682;2023-02-16T00:08:00;4.70;99.90
2162;DHT22;1087;50.226;8.682;2023-02-16T00:10:32;4.60;99.90
2162;DHT22;1087;50.226;8.682;2023-02-16T00:12:59;4.60;99.90
2162;DHT22;1087;50.226;8.682;2023-02-16T00:15:43;4.50;99.90
2162;DHT22;1087;50.226;8.682;2023-02-16T00:18:20;4.60;99.90
2162;DHT22;1087;50.226;8.682;2023-02-16T00:20:47;4.70;99.90
2162;DHT22;1087;50.226;8.682;2023-02-16T00:23:13;4.70;99.90
2162;DHT22;1087;50.226;8.682;2023-02-16T00:25:38;4.80;99.90
2162;DHT22;1087;50.226;8.682;2023-02-16T00:28:10;4.80;99.90
2162;DHT22;1087;50.226;8.682;2023-02-16T00:30:38;4.80;99.90
2162;DHT22;1087;50.226;8.682;2023-02-16T00:33:15;4.80;99.90
2162;DHT22;1087;50.226;8.682;2023-02-16T00:35:40;4.80;99.90
2162;DHT22;1087;50.226;8.682;2023-02-16T00:38:06;4.80;99.90
2162;DHT22;1087;50.226;8.682;2023-02-16T00:40:32;4.50;99.90
2162;DHT22;1087;50.226;8.682;2023-02-16T00:42:58;4.40;99.90
2162;DHT22;1087;50.226;8.682;2023-02-16T00:45:24;4.60;99.90
2162;DHT22;1087;50.226;8.682;2023-02-16T00:47:51;4.60;99.90
2162;DHT22;1087;50.226;8.682;2023-02-16T00:50:30;4.60;99.90
2162;DHT22;1087;50.226;8.682;2023-02-16T00:52:56;4.50;99.90
2162;DHT22;1087;50.226;8.682;2023-02-16T00:55:28;4.60;99.90
2162;DHT22;1087;50.226;8.682;2023-02-16T01:00:52;4.60;99.90
2162;DHT22;1087;50.226;8.682;2023-02-16T01:03:22;4.60;99.90
2162;DHT22;1087;50.226;8.682;2023-02-16T01:05:48;4.60;99.90
2162;DHT22;1087;50.226;8.682;2023-02-16T01:08:15;4.70;99.90
2162;DHT22;1087;50.226;8.682;2023-02-16T01:11:01;4.70;99.90
2162;DHT22;1087;50.226;8.682;2023-02-16T01:13:48;4.80;99.90
2162;DHT22;1087;50.226;8.682;2023-02-16T01:16:16;4.80;99.90
2162;DHT22;1087;50.226;8.682;2023-02-16T01:18:43;4.80;99.90
2162;DHT22;1087;50.226;8.682;2023-02-16T01:21:09;4.80;99.90
2162;DHT22;1087;50.226;8.682;2023-02-16T01:23:36;4.80;99.90
2162;DHT22;1087;50.226;8.682;2023-02-16T01:26:01;4.80;99.90
2162;DHT22;1087;50.226;8.682;2023-02-16T01:28:27;4.80;99.90
2162;DHT22;1087;50.226;8.682;2023-02-16T01:30:53;4.80;99.90
2162;DHT22;1087;50.226;8.682;2023-02-16T01:33:19;4.70;99.90
2162;DHT22;1087;50.226;8.682;2023-02-16T01:35:45;4.70;99.90
2162;DHT22;1087;50.226;8.682;2023-02-16T01:38:18;4.70;99.90
2162;DHT22;1087;50.226;8.682;2023-02-16T01:40:51;4.60;99.90
2162;DHT22;1087;50.226;8.682;2023-02-16T01:43:29;4.60;99.90
2162;DHT22;1087;50.226;8.682;2023-02-16T01:46:07;4.60;99.90
2162;DHT22;1087;50.226;8.682;2023-02-16T01:48:35;4.70;99.90
2162;DHT22;1087;50.226;8.682;2023-02-16T01:51:18;4.70;99.90
2162;DHT22;1087;50.226;8.682;2023-02-16T01:56:29;4.60;99.90
2162;DHT22;1087;50.226;8.682;2023-02-16T01:59:02;4.70;99.90
2162;DHT22;1087;50.226;8.682;2023-02-16T02:01:54;4.70;99.90
2162;DHT22;1087;50.226;8.682;2023-02-16T02:04:25;4.70;99.90
2162;DHT22;1087;50.226;8.682;2023-02-16T02:07:22;4.60;99.90
2162;DHT22;1087;50.226;8.682;2023-02-16T02:10:02;4.70;99.90
2162;DHT22;1087;50.226;8.682;2023-02-16T02:12:44;4.70;99.90
2162;DHT22;1087;50.226;8.682;2023-02-16T02:15:10;4.70;99.90
2162;DHT22;1087;50.226;8.682;2023-02-16T02:17:37;4.40;99.90
2162;DHT22;1087;50.226;8.682;2023-02-16T02:29:23;4.50;99.90
2162;DHT22;1087;50.226;8.682;2023-02-16T02:32:15;4.60;99.90
2162;DHT22;1087;50.226;8.682;2023-02-16T02:40:21;4.40;99.90
2162;DHT22;1087;50.226;8.682;2023-02-16T02:43:13;4.40;99.90
2162;DHT22;1087;50.226;8.682;2023-02-16T02:45:44;4.50;99.90
2162;DHT22;1087;50.226;8.682;2023-02-16T02:48:11;4.40;99.90
2162;DHT22;1087;50.226;8.682;2023-02-16T02:50:53;4.50;99.90
2162;DHT22;1087;50.226;8.682;2023-02-16T02:53:42;4.50;99.90
2162;DHT22;1087;50.226;8.682;2023-02-16T02:56:11;4.50;99.90
2162;DHT22;1087;50.226;8.682;2023-02-16T02:59:02;4.40;99.90
2162;DHT22;1087;50.226;8.682;2023-02-16T03:01:51;4.40;99.90
2162;DHT22;1087;50.226;8.682;2023-02-16T03:04:23;4.50;99.90
2162;DHT22;1087;50.226;8.682;2023-02-16T03:06:51;4.30;99.90
2162;DHT22;1087;50.226;8.682;2023-02-16T03:09:18;4.30;99.90
2162;DHT22;1087;50.226;8.682;2023-02-16T03:11:46;4.30;99.90
2162;DHT22;1087;50.226;8.682;2023-02-16T03:14:42;4.40;99.90
2162;DHT22;1087;50.226;8.682;2023-02-16T03:17:11;4.40;99.90
2162;DHT22;1087;50.226;8.682;2023-02-16T03:19:58;4.40;99.90
2162;DHT22;1087;50.226;8.682;2023-02-16T03:22:44;4.40;99.90
2162;DHT22;1087;50.226;8.682;2023-02-16T03:25:32;4.40;99.90
2162;DHT22;1087;50.226;8.682;2023-02-16T03:28:19;4.40;99.90
2162;DHT22;1087;50.226;8.682;2023-02-16T03:31:05;4.30;99.90
2162;DHT22;1087;50.226;8.682;2023-02-16T03:33:32;4.40;99.90
2162;DHT22;1087;50.226;8.682;2023-02-16T03:35:59;4.40;99.90
2162;DHT22;1087;50.226;8.682;2023-02-16T03:38:25;4.30;99.90
2162;DHT22;1087;50.226;8.682;2023-02-16T03:40:51;4.30;99.90
2162;DHT22;1087;50.226;8.682;2023-02-16T03:43:17;4.30;99.90
2162;DHT22;1087;50.226;8.682;2023-02-16T03:45:43;4.30;99.90
2162;DHT22;1087;50.226;8.682;2023-02-16T03:48:09;4.10;99.90
2162;DHT22;1087;50.226;8.682;2023-02-16T03:50:35;4.10;99.90
2162;DHT22;1087;50.226;8.682;2023-02-16T03:53:01;4.10;99.90
2162;DHT22;1087;50.226;8.682;2023-02-16T03:55:42;4.10;99.90
2162;DHT22;1087;50.226;8.682;2023-02-16T03:58:10;4.10;99.90
2162;DHT22;1087;50.226;8.682;2023-02-16T04:00:36;4.00;99.90
2162;DHT22;1087;50.226;8.682;2023-02-16T04:03:03;4.00;99.90
2162;DHT22;1087;50.226;8.682;2023-02-16T04:05:29;4.20;99.90
2162;DHT22;1087;50.226;8.682;2023-02-16T04:07:54;4.00;99.90
2162;DHT22;1087;50.226;8.682;2023-02-16T04:10:20;4.00;99.90
2162;DHT22;1087;50.226;8.682;2023-02-16T04:12:46;4.10;99.90
2162;DHT22;1087;50.226;8.682;2023-02-16T04:15:14;4.10;99.90
2162;DHT22;1087;50.226;8.682;2023-02-16T04:17:40;4.00;99.90
2162;DHT22;1087;50.226;8.682;2023-02-16T04:20:07;4.10;99.90
2162;DHT22;1087;50.226;8.682;2023-02-16T04:22:33;4.10;99.90
2162;DHT22;1087;50.226;8.682;2023-02-16T04:24:59;4.20;99.90
2162;DHT22;1087;50.226;8.682;2023-02-16T04:27:25;4.20;99.90
2162;DHT22;1087;50.226;8.682;2023-02-16T04:29:50;4.10;99.90
2162;DHT22;1087;50.226;8.682;2023-02-16T04:32:16;3.90;99.90
2162;DHT22;1087;50.226;8.682;2023-02-16T04:34:41;3.90;99.90
2162;DHT22;1087;50.226;8.682;2023-02-16T04:37:07;4.00;99.90
2162;DHT22;1087;50.226;8.682;2023-02-16T04:39:32;4.10;99.90
2162;DHT22;1087;50.226;8.682;2023-02-16T04:41:58;4.10;99.90
2162;DHT22;1087;50.226;8.682;2023-02-16T04:44:23;4.20;99.90
2162;DHT22;1087;50.226;8.682;2023-02-16T04:46:49;4.10;99.90
2162;DHT22;1087;50.226;8.682;2023-02-16T04:49:14;4.10;99.90
2162;DHT22;1087;50.226;8.682;2023-02-16T04:51:40;4.20;99.90
2162;DHT22;1087;50.226;8.682;2023-02-16T04:54:06;4.20;99.90
2162;DHT22;1087;50.226;8.682;2023-02-16T04:56:32;4.20;99.90
2162;DHT22;1087;50.226;8.682;2023-02-16T04:58:57;4.20;99.90
2162;DHT22;1087;50.226;8.682;2023-02-16T05:01:25;4.30;99.90
2162;DHT22;1087;50.226;8.682;2023-02-16T05:03:51;4.20;99.90
2162;DHT22;1087;50.226;8.682;2023-02-16T05:06:17;4.20;99.90
2162;DHT22;1087;50.226;8.682;2023-02-16T05:08:42;4.20;99.90
2162;DHT22;1087;50.226;8.682;2023-02-16T05:11:08;4.20;99.90
2162;DHT22;1087;50.226;8.682;2023-02-16T05:13:52;4.30;99.90
2162;DHT22;1087;50.226;8.682;2023-02-16T05:16:36;4.20;99.90
2162;DHT22;1087;50.226;8.682;2023-02-16T05:19:02;4.10;99.90
2162;DHT22;1087;50.226;8.682;2023-02-16T05:21:28;4.20;99.90
2162;DHT22;1087;50.226;8.682;2023-02-16T05:24:01;4.20;99.90
2162;DHT22;1087;50.226;8.682;2023-02-16T05:26:27;4.10;99.90
2162;DHT22;1087;50.226;8.682;2023-02-16T05:28:53;4.10;99.90
2162;DHT22;1087;50.226;8.682;2023-02-16T05:31:19;4.00;99.90
2162;DHT22;1087;50.226;8.682;2023-02-16T05:33:45;3.90;99.90
2162;DHT22;1087;50.226;8.682;2023-02-16T05:36:10;4.00;99.90
2162;DHT22;1087;50.226;8.682;2023-02-16T05:38:36;4.00;99.90
2162;DHT22;1087;50.226;8.682;2023-02-16T05:41:02;4.00;99.90
2162;DHT22;1087;50.226;8.682;2023-02-16T05:43:27;4.10;99.90
2162;DHT22;1087;50.226;8.682;2023-02-16T05:45:53;4.00;99.90
2162;DHT22;1087;50.226;8.682;2023-02-16T05:48:18;4.10;99.90
2162;DHT22;1087;50.226;8.682;2023-02-16T05:50:44;3.90;99.90
2162;DHT22;1087;50.226;8.682;2023-02-16T05:53:09;4.00;99.90
2162;DHT22;1087;50.226;8.682;2023-02-16T05:55:35;4.00;99.90
2162;DHT22;1087;50.226;8.682;2023-02-16T05:58:00;3.70;99.90
2162;DHT22;1087;50.226;8.682;2023-02-16T06:00:26;3.80;99.90
2162;DHT22;1087;50.226;8.682;2023-02-16T06:02:51;3.90;99.90
2162;DHT22;1087;50.226;8.682;2023-02-16T06:05:17;3.90;99.90
2162;DHT22;1087;50.226;8.682;2023-02-16T06:07:43;4.00;99.90
2162;DHT22;1087;50.226;8.682;2023-02-16T06:10:10;4.10;99.90
2162;DHT22;1087;50.226;8.682;2023-02-16T06:12:35;4.20;99.90
2162;DHT22;1087;50.226;8.682;2023-02-16T06:15:01;4.20;99.90
2162;DHT22;1087;50.226;8.682;2023-02-16T06:17:26;4.20;99.90
2162;DHT22;1087;50.226;8.682;2023-02-16T06:19:53;4.00;99.90
2162;DHT22;1087;50.226;8.682;2023-02-16T06:22:19;4.00;99.90
2162;DHT22;1087;50.226;8.682;2023-02-16T06:24:44;3.90;99.90
2162;DHT22;1087;50.226;8.682;2023-02-16T06:27:10;4.00;99.90
2162;DHT22;1087;50.226;8.682;2023-02-16T06:29:35;4.10;99.90
2162;DHT22;1087;50.226;8.682;2023-02-16T06:32:01;4.00;99.90
2162;DHT22;1087;50.226;8.682;2023-02-16T06:34:26;4.10;99.90
2162;DHT22;1087;50.226;8.682;2023-02-16T06:36:52;4.00;99.90
2162;DHT22;1087;50.226;8.682;2023-02-16T06:39:18;4.00;99.90
2162;DHT22;1087;50.226;8.682;2023-02-16T06:41:43;4.00;99.90
2162;DHT22;1087;50.226;8.682;2023-02-16T06:44:11;3.90;99.90
2162;DHT22;1087;50.226;8.682;2023-02-16T06:46:38;4.00;99.90
2162;DHT22;1087;50.226;8.682;2023-02-16T06:49:03;3.90;99.90
2162;DHT22;1087;50.226;8.682;2023-02-16T06:51:32;3.80;99.90
2162;DHT22;1087;50.226;8.682;2023-02-16T06:53:58;3.80;99.90
2162;DHT22;1087;50.226;8.682;2023-02-16T06:56:23;3.90;99.90
2162;DHT22;1087;50.226;8.682;2023-02-16T06:58:49;3.90;99.90
2162;DHT22;1087;50.226;8.682;2023-02-16T07:01:15;4.00;99.90
2162;DHT22;1087;50.226;8.682;2023-02-16T07:03:50;3.90;99.90
2162;DHT22;1087;50.226;8.682;2023-02-16T07:06:16;3.90;99.90
2162;DHT22;1087;50.226;8.682;2023-02-16T07:08:41;4.00;99.90
2162;DHT22;1087;50.226;8.682;2023-02-16T07:11:07;4.00;99.90
2162;DHT22;1087;50.226;8.682;2023-02-16T07:13:33;3.80;99.90
2162;DHT22;1087;50.226;8.682;2023-02-16T07:16:02;3.90;99.90
2162;DHT22;1087;50.226;8.682;2023-02-16T07:18:28;4.00;99.90
2162;DHT22;1087;50.226;8.682;2023-02-16T07:20:54;4.00;99.90
2162;DHT22;1087;50.226;8.682;2023-02-16T07:23:19;3.90;99.90
2162;DHT22;1087;50.226;8.682;2023-02-16T07:25:46;3.90;99.90
2162;DHT22;1087;50.226;8.682;2023-02-16T07:28:11;4.10;99.90
2162;DHT22;1087;50.226;8.682;2023-02-16T07:30:37;4.10;99.90
2162;DHT22;1087;50.226;8.682;2023-02-16T07:33:03;4.10;99.90
2162;DHT22;1087;50.226;8.682;2023-02-16T07:35:28;4.10;99.90
2162;DHT22;1087;50.226;8.682;2023-02-16T07:37:54;4.20;99.90
2162;DHT22;1087;50.226;8.682;2023-02-16T07:40:20;4.20;99.90
2162;DHT22;1087;50.226;8.682;2023-02-16T07:42:45;4.10;99.90
2162;DHT22;1087;50.226;8.682;2023-02-16T07:45:11;4.10;99.90
2162;DHT22;1087;50.226;8.682;2023-02-16T07:47:36;4.00;99.90
2162;DHT22;1087;50.226;8.682;2023-02-16T07:50:03;4.00;99.90
2162;DHT22;1087;50.226;8.682;2023-02-16T07:52:28;3.90;99.90
2162;DHT22;1087;50.226;8.682;2023-02-16T07:54:56;4.00;99.90
2162;DHT22;1087;50.226;8.682;2023-02-16T07:57:23;4.00;99.90
2162;DHT22;1087;50.226;8.682;2023-02-16T07:59:52;4.00;99.90
2162;DHT22;1087;50.226;8.682;2023-02-16T08:02:19;4.10;99.90
2162;DHT22;1087;50.226;8.682;2023-02-16T08:04:46;4.10;99.90
2162;DHT22;1087;50.226;8.682;2023-02-16T08:07:15;4.10;99.90
2162;DHT22;1087;50.226;8.682;2023-02-16T08:09:41;4.10;99.90
2162;DHT22;1087;50.226;8.682;2023-02-16T08:12:11;4.10;99.90
2162;DHT22;1087;50.226;8.682;2023-02-16T08:14:38;3.90;99.90
2162;DHT22;1087;50.226;8.682;2023-02-16T08:17:05;4.00;99.90
2162;DHT22;1087;50.226;8.682;2023-02-16T08:19:31;4.00;99.90
2162;DHT22;1087;50.226;8.682;2023-02-16T08:21:58;4.00;99.90
2162;DHT22;1087;50.226;8.682;2023-02-16T08:24:24;3.90;99.90
2162;DHT22;1087;50.226;8.682;2023-02-16T08:26:50;3.90;99.90
2162;DHT22;1087;50.226;8.682;2023-02-16T08:29:18;3.90;99.90
2162;DHT22;1087;50.226;8.682;2023-02-16T08:31:45;4.00;99.90
2162;DHT22;1087;50.226;8.682;2023-02-16T08:34:16;4.00;99.90
2162;DHT22;1087;50.226;8.682;2023-02-16T08:36:45;3.90;99.90
2162;DHT22;1087;50.226;8.682;2023-02-16T08:39:13;4.00;99.90
2162;DHT22;1087;50.226;8.682;2023-02-16T08:41:39;3.80;99.90
2162;DHT22;1087;50.226;8.682;2023-02-16T08:44:07;3.70;99.90
2162;DHT22;1087;50.226;8.682;2023-02-16T08:46:34;3.80;99.90
2162;DHT22;1087;50.226;8.682;2023-02-16T08:49:02;3.80;99.90
2162;DHT22;1087;50.226;8.682;2023-02-16T08:51:29;3.90;99.90
2162;DHT22;1087;50.226;8.682;2023-02-16T08:53:56;4.00;99.90
2162;DHT22;1087;50.226;8.682;2023-02-16T08:56:22;4.00;99.90
2162;DHT22;1087;50.226;8.682;2023-02-16T08:58:48;4.00;99.90
2162;DHT22;1087;50.226;8.682;2023-02-16T09:01:14;4.00;99.90
2162;DHT22;1087;50.226;8.682;2023-02-16T09:03:41;4.20;99.90
2162;DHT22;1087;50.226;8.682;2023-02-16T09:06:08;4.10;99.90
2162;DHT22;1087;50.226;8.682;2023-02-16T09:08:35;4.10;99.90
2162;DHT22;1087;50.226;8.682;2023-02-16T09:11:05;4.10;99.90
2162;DHT22;1087;50.226;8.682;2023-02-16T09:13:33;4.20;99.90
2162;DHT22;1087;50.226;8.682;2023-02-16T09:16:03;4.10;99.90
2162;DHT22;1087;50.226;8.682;2023-02-16T09:18:28;4.10;99.90
2162;DHT22;1087;50.226;8.682;2023-02-16T09:20:54;3.90;99.90
2162;DHT22;1087;50.226;8.682;2023-02-16T09:23:19;4.00;99.90
2162;DHT22;1087;50.226;8.682;2023-02-16T09:25:46;4.00;99.90
2162;DHT22;1087;50.226;8.682;2023-02-16T09:28:12;4.00;99.90
2162;DHT22;1087;50.226;8.682;2023-02-16T09:30:38;4.10;99.90
2162;DHT22;1087;50.226;8.682;2023-02-16T09:33:04;4.10;99.90
2162;DHT22;1087;50.226;8.682;2023-02-16T09:35:29;4.20;99.90
2162;DHT22;1087;50.226;8.682;2023-02-16T09:37:55;4.10;99.90
2162;DHT22;1087;50.226;8.682;2023-02-16T09:40:23;4.00;99.90
2162;DHT22;1087;50.226;8.682;2023-02-16T09:45:27;4.20;99.90
2162;DHT22;1087;50.226;8.682;2023-02-16T09:47:55;4.00;99.90
2162;DHT22;1087;50.226;8.682;2023-02-16T09:50:26;3.70;99.90
2162;DHT22;1087;50.226;8.682;2023-02-16T09:53:07;3.70;99.90
2162;DHT22;1087;50.226;8.682;2023-02-16T09:58:38;3.70;99.90
2162;DHT22;1087;50.226;8.682;2023-02-16T10:01:33;3.70;99.90
2162;DHT22;1087;50.226;8.682;2023-02-16T10:04:23;3.80;99.90
2162;DHT22;1087;50.226;8.682;2023-02-16T10:07:14;4.00;99.90
2162;DHT22;1087;50.226;8.682;2023-02-16T10:09:50;3.90;99.90
2162;DHT22;1087;50.226;8.682;2023-02-16T10:12:22;3.90;99.90
2162;DHT22;1087;50.226;8.682;2023-02-16T10:14:52;3.80;99.90
2162;DHT22;1087;50.226;8.682;2023-02-16T10:22:42;4.00;99.90
2162;DHT22;1087;50.226;8.682;2023-02-16T10:28:27;4.10;99.90
2162;DHT22;1087;50.226;8.682;2023-02-16T10:31:08;4.10;99.90
2162;DHT22;1087;50.226;8.682;2023-02-16T10:33:44;4.20;99.90
2162;DHT22;1087;50.226;8.682;2023-02-16T10:38:58;4.30;99.90
2162;DHT22;1087;50.226;8.682;2023-02-16T10:43:57;4.40;99.90
2162;DHT22;1087;50.226;8.682;2023-02-16T10:46:33;4.40;99.90
2162;DHT22;1087;50.226;8.682;2023-02-16T10:49:00;4.30;99.90
2162;DHT22;1087;50.226;8.682;2023-02-16T10:51:31;4.20;99.90
2162;DHT22;1087;50.226;8.682;2023-02-16T10:54:01;4.20;99.90
2162;DHT22;1087;50.226;8.682;2023-02-16T10:58:57;4.30;99.90
2162;DHT22;1087;50.226;8.682;2023-02-16T11:01:37;4.10;99.90
2162;DHT22;1087;50.226;8.682;2023-02-16T11:04:04;4.30;99.90
2162;DHT22;1087;50.226;8.682;2023-02-16T11:06:30;4.20;99.90
2162;DHT22;1087;50.226;8.682;2023-02-16T11:08:58;4.20;99.90
2162;DHT22;1087;50.226;8.682;2023-02-16T11:11:36;4.10;99.90
2162;DHT22;1087;50.226;8.682;2023-02-16T11:14:06;4.20;99.90
2162;DHT22;1087;50.226;8.682;2023-02-16T11:16:32;4.20;99.90
2162;DHT22;1087;50.226;8.682;2023-02-16T11:19:02;4.30;99.90
2162;DHT22;1087;50.226;8.682;2023-02-16T11:24:34;4.50;99.90
2162;DHT22;1087;50.226;8.682;2023-02-16T11:27:18;4.50;99.90
2162;DHT22;1087;50.226;8.682;2023-02-16T11:29:44;4.60;99.90
2162;DHT22;1087;50.226;8.682;2023-02-16T11:32:11;4.60;99.90
2162;DHT22;1087;50.226;8.682;2023-02-16T11:34:48;4.60;99.90
2162;DHT22;1087;50.226;8.682;2023-02-16T11:37:28;4.80;99.90
2162;DHT22;1087;50.226;8.682;2023-02-16T11:39:56;4.80;99.90
2162;DHT22;1087;50.226;8.682;2023-02-16T11:42:43;4.70;99.90
2162;DHT22;1087;50.226;8.682;2023-02-16T11:47:52;4.90;99.90
2162;DHT22;1087;50.226;8.682;2023-02-16T11:50:23;4.60;99.90
2162;DHT22;1087;50.226;8.682;2023-02-16T11:55:35;4.80;99.90
2162;DHT22;1087;50.226;8.682;2023-02-16T11:58:22;4.80;99.90
2162;DHT22;1087;50.226;8.682;2023-02-16T12:01:16;4.90;99.90
2162;DHT22;1087;50.226;8.682;2023-02-16T12:13:05;5.20;99.90
2162;DHT22;1087;50.226;8.682;2023-02-16T12:15:42;5.30;99.90
2162;DHT22;1087;50.226;8.682;2023-02-16T12:21:17;5.40;99.90
2162;DHT22;1087;50.226;8.682;2023-02-16T12:24:17;5.40;99.90
2162;DHT22;1087;50.226;8.682;2023-02-16T12:26:53;5.50;99.90
2162;DHT22;1087;50.226;8.682;2023-02-16T12:35:06;5.70;99.90
2162;DHT22;1087;50.226;8.682;2023-02-16T12:41:07;5.50;99.90
2162;DHT22;1087;50.226;8.682;2023-02-16T12:43:47;5.60;99.90
2162;DHT22;1087;50.226;8.682;2023-02-16T12:46:26;5.70;99.90
2162;DHT22;1087;50.226;8.682;2023-02-16T12:49:16;5.80;99.90
2162;DHT22;1087;50.226;8.682;2023-02-16T12:51:48;5.90;99.90
2162;DHT22;1087;50.226;8.682;2023-02-16T12:54:37;5.80;99.90
2162;DHT22;1087;50.226;8.682;2023-02-16T12:57:25;5.90;99.90
2162;DHT22;1087;50.226;8.682;2023-02-16T12:59:56;5.90;99.90
2162;DHT22;1087;50.226;8.682;2023-02-16T13:02:32;5.80;99.90
2162;DHT22;1087;50.226;8.682;2023-02-16T13:05:02;5.90;99.90
2162;DHT22;1087;50.226;8.682;2023-02-16T13:07:41;5.80;99.90
2162;DHT22;1087;50.226;8.682;2023-02-16T13:10:19;5.70;99.90
2162;DHT22;1087;50.226;8.682;2023-02-16T13:13:01;5.80;99.90
2162;DHT22;1087;50.226;8.682;2023-02-16T13:15:36;5.90;99.90
2162;DHT22;1087;50.226;8.682;2023-02-16T13:18:15;5.90;99.90
2162;DHT22;1087;50.226;8.682;2023-02-16T13:20:50;6.00;99.90
2162;DHT22;1087;50.226;8.682;2023-02-16T13:46:05;6.10;99.90
2162;DHT22;1087;50.226;8.682;2023-02-16T13:48:46;6.10;99.90
2162;DHT22;1087;50.226;8.682;2023-02-16T13:51:16;6.10;99.90
2162;DHT22;1087;50.226;8.682;2023-02-16T13:53:55;6.20;99.90
2162;DHT22;1087;50.226;8.682;2023-02-16T13:58:54;6.20;99.90
2162;DHT22;1087;50.226;8.682;2023-02-16T14:03:58;6.00;99.90
2162;DHT22;1087;50.226;8.682;2023-02-16T14:16:53;6.30;99.90
2162;DHT22;1087;50.226;8.682;2023-02-16T14:19:23;6.30;99.90
2162;DHT22;1087;50.226;8.682;2023-02-16T14:21:50;6.30;99.90
2162;DHT22;1087;50.226;8.682;2023-02-16T14:26:56;6.40;99.90
2162;DHT22;1087;50.226;8.682;2023-02-16T14:32:14;6.40;99.90
2162;DHT22;1087;50.226;8.682;2023-02-16T14:34:53;6.50;99.90
2162;DHT22;1087;50.226;8.682;2023-02-16T14:37:24;6.40;99.90
2162;DHT22;1087;50.226;8.682;2023-02-16T14:39:52;6.40;99.90
2162;DHT22;1087;50.226;8.682;2023-02-16T14:42:28;6.40;99.90
2162;DHT22;1087;50.226;8.682;2023-02-16T14:45:07;6.50;99.90
2162;DHT22;1087;50.226;8.682;2023-02-16T14:48:17;6.60;99.90
2162;DHT22;1087;50.226;8.682;2023-02-16T14:56:48;6.60;99.90
2162;DHT22;1087;50.226;8.682;2023-02-16T15:01:43;6.60;99.90
2162;DHT22;1087;50.226;8.682;2023-02-16T15:04:10;6.60;99.90
2162;DHT22;1087;50.226;8.682;2023-02-16T15:06:45;6.60;99.90
2162;DHT22;1087;50.226;8.682;2023-02-16T15:09:14;6.50;99.90
2162;DHT22;1087;50.226;8.682;2023-02-16T15:11:54;6.50;99.90
2162;DHT22;1087;50.226;8.682;2023-02-16T15:19:43;6.50;99.90
2162;DHT22;1087;50.226;8.682;2023-02-16T15:22:17;6.60;99.90
2162;DHT22;1087;50.226;8.682;2023-02-16T15:24:43;6.60;99.90
2162;DHT22;1087;50.226;8.682;2023-02-16T15:27:20;6.60;99.90
2162;DHT22;1087;50.226;8.682;2023-02-16T15:30:14;6.60;99.90
2162;DHT22;1087;50.226;8.682;2023-02-16T15:32:55;6.60;99.90
2162;DHT22;1087;50.226;8.682;2023-02-16T15:35:28;6.60;99.90
2162;DHT22;1087;50.226;8.682;2023-02-16T15:37:59;6.50;99.90
2162;DHT22;1087;50.226;8.682;2023-02-16T15:40:28;6.60;99.90
2162;DHT22;1087;50.226;8.682;2023-02-16T15:43:06;6.60;99.90
2162;DHT22;1087;50.226;8.682;2023-02-16T15:45:34;6.60;99.90
2162;DHT22;1087;50.226;8.682;2023-02-16T15:50:53;6.70;99.90
2162;DHT22;1087;50.226;8.682;2023-02-16T15:53:32;6.60;99.90
2162;DHT22;1087;50.226;8.682;2023-02-16T15:55:58;6.60;99.90
2162;DHT22;1087;50.226;8.682;2023-02-16T15:58:24;6.70;99.90
2162;DHT22;1087;50.226;8.682;2023-02-16T16:00:51;6.70;99.90
2162;DHT22;1087;50.226;8.682;2023-02-16T16:03:18;6.70;99.90
2162;DHT22;1087;50.226;8.682;2023-02-16T16:06:03;6.70;99.90
2162;DHT22;1087;50.226;8.682;2023-02-16T16:08:30;6.70;99.90
2162;DHT22;1087;50.226;8.682;2023-02-16T16:10:56;6.80;99.90
2162;DHT22;1087;50.226;8.682;2023-02-16T16:13:27;6.80;99.90
2162;DHT22;1087;50.226;8.682;2023-02-16T16:15:56;6.80;99.90
2162;DHT22;1087;50.226;8.682;2023-02-16T16:18:41;6.70;99.90
2162;DHT22;1087;50.226;8.682;2023-02-16T16:21:34;6.70;99.90
2162;DHT22;1087;50.226;8.682;2023-02-16T16:24:04;6.60;99.90
2162;DHT22;1087;50.226;8.682;2023-02-16T16:26:49;6.60;99.90
2162;DHT22;1087;50.226;8.682;2023-02-16T16:31:57;6.70;99.90
2162;DHT22;1087;50.226;8.682;2023-02-16T16:34:38;6.70;99.90
2162;DHT22;1087;50.226;8.682;2023-02-16T16:37:05;6.70;99.90
2162;DHT22;1087;50.226;8.682;2023-02-16T16:39:39;6.70;99.90
2162;DHT22;1087;50.226;8.682;2023-02-16T16:42:21;6.70;99.90
2162;DHT22;1087;50.226;8.682;2023-02-16T16:45:00;6.70;99.90
2162;DHT22;1087;50.226;8.682;2023-02-16T16:47:38;6.80;99.90
2162;DHT22;1087;50.226;8.682;2023-02-16T16:52:44;6.80;99.90
2162;DHT22;1087;50.226;8.682;2023-02-16T16:55:20;6.80;99.90
2162;DHT22;1087;50.226;8.682;2023-02-16T16:57:47;6.80;99.90
2162;DHT22;1087;50.226;8.682;2023-02-16T17:00:13;6.80;99.90
2162;DHT22;1087;50.226;8.682;2023-02-16T17:02:40;6.70;99.90
2162;DHT22;1087;50.226;8.682;2023-02-16T17:05:06;6.70;99.90
2162;DHT22;1087;50.226;8.682;2023-02-16T17:07:32;6.70;99.90
2162;DHT22;1087;50.226;8.682;2023-02-16T17:09:58;6.60;99.90
2162;DHT22;1087;50.226;8.682;2023-02-16T17:12:24;6.60;99.90
2162;DHT22;1087;50.226;8.682;2023-02-16T17:14:50;6.50;99.90
2162;DHT22;1087;50.226;8.682;2023-02-16T17:17:16;6.50;99.90
2162;DHT22;1087;50.226;8.682;2023-02-16T17:19:41;6.60;99.90
2162;DHT22;1087;50.226;8.682;2023-02-16T17:22:18;6.70;99.90
2162;DHT22;1087;50.226;8.682;2023-02-16T17:24:43;6.70;99.90
2162;DHT22;1087;50.226;8.682;2023-02-16T17:27:10;6.60;99.90
2162;DHT22;1087;50.226;8.682;2023-02-16T17:29:35;6.70;99.90
2162;DHT22;1087;50.226;8.682;2023-02-16T17:32:04;6.70;99.90
2162;DHT22;1087;50.226;8.682;2023-02-16T17:34:30;6.70;99.90
2162;DHT22;1087;50.226;8.682;2023-02-16T17:37:00;6.70;99.90
2162;DHT22;1087;50.226;8.682;2023-02-16T17:39:33;6.80;99.90
2162;DHT22;1087;50.226;8.682;2023-02-16T17:41:59;6.70;99.90
2162;DHT22;1087;50.226;8.682;2023-02-16T17:44:25;6.90;99.90
2162;DHT22;1087;50.226;8.682;2023-02-16T17:46:52;6.70;99.90
2162;DHT22;1087;50.226;8.682;2023-02-16T17:49:18;6.70;99.90
2162;DHT22;1087;50.226;8.682;2023-02-16T17:51:44;6.70;99.90
2162;DHT22;1087;50.226;8.682;2023-02-16T17:54:09;6.70;99.90
2162;DHT22;1087;50.226;8.682;2023-02-16T17:56:36;6.70;99.90
2162;DHT22;1087;50.226;8.682;2023-02-16T17:59:04;6.80;99.90
2162;DHT22;1087;50.226;8.682;2023-02-16T18:01:30;6.80;99.90
2162;DHT22;1087;50.226;8.682;2023-02-16T18:03:57;6.80;99.90
2162;DHT22;1087;50.226;8.682;2023-02-16T18:06:24;6.80;99.90
2162;DHT22;1087;50.226;8.682;2023-02-16T18:08:50;6.80;99.90
2162;DHT22;1087;50.226;8.682;2023-02-16T18:11:16;6.90;99.90
2162;DHT22;1087;50.226;8.682;2023-02-16T18:13:42;6.90;99.90
2162;DHT22;1087;50.226;8.682;2023-02-16T18:16:13;6.90;99.90
2162;DHT22;1087;50.226;8.682;2023-02-16T18:18:39;6.80;99.90
2162;DHT22;1087;50.226;8.682;2023-02-16T18:21:07;6.80;99.90
2162;DHT22;1087;50.226;8.682;2023-02-16T18:23:33;6.80;99.90
2162;DHT22;1087;50.226;8.682;2023-02-16T18:25:59;6.80;99.90
2162;DHT22;1087;50.226;8.682;2023-02-16T18:28:26;6.80;99.90
2162;DHT22;1087;50.226;8.682;2023-02-16T18:30:52;6.80;99.90
2162;DHT22;1087;50.226;8.682;2023-02-16T18:33:18;6.90;99.90
2162;DHT22;1087;50.226;8.682;2023-02-16T18:35:49;6.80;99.90
2162;DHT22;1087;50.226;8.682;2023-02-16T18:38:15;6.80;99.90
2162;DHT22;1087;50.226;8.682;2023-02-16T18:40:42;6.80;99.90
2162;DHT22;1087;50.226;8.682;2023-02-16T18:43:08;6.80;99.90
2162;DHT22;1087;50.226;8.682;2023-02-16T18:45:36;6.80;99.90
2162;DHT22;1087;50.226;8.682;2023-02-16T18:48:01;6.90;99.90
2162;DHT22;1087;50.226;8.682;2023-02-16T18:50:27;6.80;99.90
2162;DHT22;1087;50.226;8.682;2023-02-16T18:52:52;6.80;99.90
2162;DHT22;1087;50.226;8.682;2023-02-16T18:55:18;6.80;99.90